Time;durP1;ratioP1;P1;durP2;ratioP2;P2;SDS_P1;SDS_P2;PMS_P1;PMS_P2;Temp;Humidity;BMP_temperature;BMP_pressure;BME280_temperature;BME280_humidity;BME280_pressure;Samples;Min_cycle;Max_cycle;Signal;HPM_P1;HPM_P2
2022/08/20 00:01:00;;;;;;;6.40;4.60;;;;;;;24.12;58.10;100183.48;90133;1271;87369;-60
2022/08/20 00:03:14;;;;;;;9.70;5.00;;;;;;;24.05;58.24;100193.83;90125;1271;94218;-60
2022/08/20 00:05:30;;;;;;;7.60;4.40;;;;;;;23.98;58.48;100193.77;90087;1271;78938;-60
2022/08/20 00:07:39;;;;;;;7.80;4.70;;;;;;;23.96;58.63;100196.25;90144;1272;82072;-60
2022/08/20 00:09:48;;;;;;;7.90;4.80;;;;;;;23.93;58.66;100201.56;90110;1272;97836;-60
2022/08/20 00:11:57;;;;;;;7.30;4.80;;;;;;;23.88;58.68;100204.73;90128;1270;85044;-60
2022/08/20 00:14:09;;;;;;;6.40;4.60;;;;;;;23.85;58.82;100205.23;90107;1271;94057;-60
2022/08/20 00:16:20;;;;;;;7.50;4.70;;;;;;;23.78;58.97;100202.34;90113;1271;81417;-60
2022/08/20 00:18:29;;;;;;;6.70;4.60;;;;;;;23.72;59.17;100206.82;90124;1271;81617;-60
2022/08/20 00:20:42;;;;;;;9.60;5.00;;;;;;;23.70;59.32;100211.79;90140;1270;99256;-60
2022/08/20 00:22:51;;;;;;;11.60;6.00;;;;;;;23.69;59.52;100204.63;90127;1271;88653;-60
2022/08/20 00:24:59;;;;;;;7.10;5.30;;;;;;;23.68;59.74;100197.40;90084;1270;94964;-60
2022/08/20 00:27:08;;;;;;;11.80;4.90;;;;;;;23.66;60.02;100199.17;90102;1272;80555;-60
2022/08/20 00:29:17;;;;;;;9.10;4.90;;;;;;;23.65;60.05;100198.33;90100;1270;81952;-60
2022/08/20 00:31:27;;;;;;;7.10;4.80;;;;;;;23.64;60.20;100197.47;90140;1271;99394;-60
2022/08/20 00:33:36;;;;;;;6.30;4.50;;;;;;;23.62;60.36;100186.23;90141;1271;88024;-60
2022/08/20 00:35:50;;;;;;;11.50;5.00;;;;;;;23.58;60.47;100186.00;90099;1271;94351;-60
2022/08/20 00:37:59;;;;;;;11.10;5.00;;;;;;;23.56;60.82;100178.57;90082;1272;80261;-60
2022/08/20 00:40:12;;;;;;;8.60;5.20;;;;;;;23.57;60.62;100175.09;90128;1271;81083;-60
2022/08/20 00:42:21;;;;;;;6.90;4.50;;;;;;;23.57;60.60;100174.26;90116;1272;97615;-60
2022/08/20 00:44:29;;;;;;;5.80;4.70;;;;;;;23.56;60.72;100165.66;90133;1271;87857;-60
2022/08/20 00:46:39;;;;;;;10.50;5.00;;;;;;;23.51;61.01;100163.36;90093;1271;93809;-60
2022/08/20 00:48:52;;;;;;;8.00;5.00;;;;;;;23.50;61.06;100153.99;90089;1272;79683;-60
2022/08/20 00:51:08;;;;;;;6.50;4.90;;;;;;;23.47;61.16;100146.44;90125;1270;81947;-60
2022/08/20 00:53:18;;;;;;;9.30;4.90;;;;;;;23.45;61.29;100142.52;90122;1271;98032;-60
2022/08/20 00:55:29;;;;;;;9.10;4.90;;;;;;;23.42;61.42;100132.21;90106;1271;89040;-60
2022/08/20 00:57:43;;;;;;;9.80;5.20;;;;;;;23.41;61.53;100133.98;90081;1271;95540;-60
2022/08/20 00:59:53;;;;;;;9.60;5.20;;;;;;;23.38;61.60;100131.95;90086;1272;81884;-60
2022/08/20 01:02:06;;;;;;;9.70;5.50;;;;;;;23.40;61.41;100131.35;90135;1270;80512;-60
2022/08/20 01:04:15;;;;;;;9.40;5.10;;;;;;;23.45;61.30;100129.06;90105;1271;98644;-60
2022/08/20 01:06:24;;;;;;;8.20;4.90;;;;;;;23.45;61.36;100126.04;90107;1272;88826;-60
2022/08/20 01:08:32;;;;;;;9.70;5.10;;;;;;;23.47;61.24;100125.33;90077;1270;94269;-60
2022/08/20 01:10:48;;;;;;;12.00;6.10;;;;;;;23.47;61.16;100118.52;90079;1271;79875;-60
2022/08/20 01:12:59;;;;;;;7.90;5.70;;;;;;;23.48;61.13;100116.27;90104;1271;81889;-60
2022/08/20 01:15:12;;;;;;;11.60;5.40;;;;;;;23.48;61.02;100114.78;90128;1271;97610;-60
2022/08/20 01:17:29;;;;;;;8.30;5.20;;;;;;;23.49;61.09;100115.27;90100;1272;88002;-60
2022/08/20 01:19:44;;;;;;;8.40;5.40;;;;;;;23.48;61.08;100111.64;90092;1271;94527;-60
2022/08/20 01:21:53;;;;;;;8.60;5.40;;;;;;;23.45;60.97;100108.72;90088;1272;79763;-60
2022/08/20 01:24:14;;;;;;;8.60;5.80;;;;;;;23.44;60.87;100106.13;90145;1271;81657;-60
2022/08/20 01:26:29;;;;;;;9.00;6.10;;;;;;;23.40;61.00;100110.39;90153;1271;98552;-60
2022/08/20 01:28:44;;;;;;;10.10;5.00;;;;;;;23.37;61.03;100103.23;90109;1271;89293;-60
2022/08/20 01:30:53;;;;;;;8.80;5.20;;;;;;;23.36;61.07;100101.11;90122;1271;95221;-60
2022/08/20 01:33:02;;;;;;;11.60;5.00;;;;;;;23.32;61.20;100099.53;90100;1271;81058;-60
2022/08/20 01:35:12;;;;;;;6.00;4.90;;;;;;;23.30;61.08;100103.45;90135;1270;82094;-60
2022/08/20 01:37:20;;;;;;;10.80;5.10;;;;;;;23.28;61.22;100098.98;90113;1271;100004;-60
2022/08/20 01:39:33;;;;;;;8.10;5.30;;;;;;;23.28;61.07;100096.05;90124;1270;88317;-60
2022/08/20 01:42:07;;;;;;;7.00;5.00;;;;;;;23.25;61.27;100093.27;90115;1270;95000;-60
2022/08/20 01:44:16;;;;;;;9.90;5.00;;;;;;;23.26;61.35;100088.40;90102;1271;78807;-60
2022/08/20 01:46:27;;;;;;;6.40;5.50;;;;;;;23.27;61.40;100083.16;90154;1270;81746;-60
2022/08/20 01:48:36;;;;;;;5.60;4.90;;;;;;;23.26;61.31;100080.48;90106;1271;98317;-60
2022/08/20 01:50:54;;;;;;;9.50;5.40;;;;;;;23.22;61.47;100078.05;90138;1270;88140;-60
2022/08/20 01:53:10;;;;;;;9.20;5.70;;;;;;;23.17;61.52;100076.13;90108;1271;94355;-60
2022/08/20 01:55:18;;;;;;;10.70;5.40;;;;;;;23.11;61.72;100077.96;90111;1272;78823;-60
2022/08/20 01:57:28;;;;;;;8.20;5.00;;;;;;;23.04;61.72;100083.66;90126;1271;82809;-60
2022/08/20 01:59:36;;;;;;;9.90;5.90;;;;;;;22.95;62.01;100078.99;90111;1271;98421;-60
2022/08/20 02:01:45;;;;;;;14.80;5.80;;;;;;;22.85;62.23;100078.34;90138;1271;88990;-60
2022/08/20 02:03:55;;;;;;;7.20;5.20;;;;;;;22.80;62.41;100079.57;90082;1270;95004;-59
2022/08/20 02:06:05;;;;;;;7.70;4.60;;;;;;;22.76;62.64;100075.60;90106;1272;79721;-60
2022/08/20 02:08:13;;;;;;;7.70;4.80;;;;;;;22.70;62.84;100074.99;90119;1271;80159;-60
2022/08/20 02:10:23;;;;;;;6.80;4.70;;;;;;;22.66;63.02;100069.34;90128;1270;97347;-60
2022/08/20 02:12:32;;;;;;;10.10;5.60;;;;;;;22.68;63.24;100067.85;90137;1271;86436;-60
2022/08/20 02:14:44;;;;;;;8.20;5.50;;;;;;;22.70;63.27;100068.17;90104;1272;95122;-60
2022/08/20 02:16:53;;;;;;;9.50;6.00;;;;;;;22.73;63.40;100070.05;90089;1270;80506;-60
2022/08/20 02:19:18;;;;;;;10.70;5.80;;;;;;;22.74;63.29;100069.09;90134;1270;82501;-60
2022/08/20 02:21:31;;;;;;;11.70;6.50;;;;;;;22.73;63.45;100059.08;90173;1270;97356;-60
2022/08/20 02:23:40;;;;;;;10.10;6.40;;;;;;;22.69;63.46;100057.27;90129;1270;88575;-60
2022/08/20 02:25:50;;;;;;;9.90;5.70;;;;;;;22.69;63.42;100063.55;90143;1272;95486;-60
2022/08/20 02:28:01;;;;;;;7.60;5.50;;;;;;;22.69;63.57;100066.90;90105;1272;80357;-60
2022/08/20 02:30:14;;;;;;;10.70;5.30;;;;;;;22.67;63.46;100083.92;90129;1271;80204;-60
2022/08/20 02:32:23;;;;;;;7.30;5.30;;;;;;;22.64;63.64;100101.73;90121;1271;99018;-60
2022/08/20 02:34:34;;;;;;;8.10;5.20;;;;;;;22.63;63.72;100103.20;90149;1272;87236;-60
2022/08/20 02:36:48;;;;;;;8.70;5.60;;;;;;;22.59;63.81;100093.60;90114;1270;95185;-60
2022/08/20 02:38:56;;;;;;;8.70;5.30;;;;;;;22.54;63.92;100109.66;90112;1270;79695;-60
2022/08/20 02:41:05;;;;;;;7.60;6.30;;;;;;;22.54;63.84;100117.39;90119;1271;82113;-60
2022/08/20 02:43:17;;;;;;;10.90;6.20;;;;;;;22.52;64.21;100120.89;90115;1270;98779;-60
2022/08/20 02:45:27;;;;;;;10.70;6.40;;;;;;;22.50;64.14;100111.52;90103;1272;88833;-60
2022/08/20 02:47:35;;;;;;;7.50;5.70;;;;;;;22.46;64.33;100117.98;90096;1270;94342;-60
2022/08/20 02:49:44;;;;;;;8.20;5.60;;;;;;;22.40;64.40;100117.55;90100;1271;79551;-60
2022/08/20 02:51:53;;;;;;;9.20;5.60;;;;;;;22.33;64.45;100106.84;90114;1270;81468;-60
2022/08/20 02:54:02;;;;;;;9.70;5.60;;;;;;;22.27;64.64;100101.23;90091;1271;99075;-60
2022/08/20 02:56:12;;;;;;;7.60;5.50;;;;;;;22.26;64.74;100098.14;90111;1270;87091;-60
2022/08/20 02:58:22;;;;;;;10.40;5.40;;;;;;;22.29;64.84;100093.14;90108;1272;93583;-60
2022/08/20 03:00:33;;;;;;;11.90;6.20;;;;;;;22.28;64.96;100079.20;90111;1270;80726;-60
2022/08/20 03:02:42;;;;;;;9.00;5.50;;;;;;;22.27;65.18;100065.44;90132;1272;82194;-60
2022/08/20 03:04:50;;;;;;;7.30;5.50;;;;;;;22.32;65.22;100062.81;90107;1271;98873;-60
2022/08/20 03:06:59;;;;;;;8.90;5.60;;;;;;;22.37;65.30;100073.05;90122;1272;87898;-60
2022/08/20 03:09:08;;;;;;;8.40;5.70;;;;;;;22.38;65.20;100076.02;90110;1272;94083;-60
2022/08/20 03:11:18;;;;;;;10.00;6.30;;;;;;;22.40;65.18;100069.48;90002;1273;78961;-60
2022/08/20 03:13:26;;;;;;;12.60;6.60;;;;;;;22.40;65.11;100065.34;90113;1270;81619;-60
2022/08/20 03:15:36;;;;;;;9.80;5.50;;;;;;;22.37;65.24;100059.52;90077;1270;99045;-60
2022/08/20 03:17:45;;;;;;;8.20;5.70;;;;;;;22.37;65.33;100061.98;90128;1270;86650;-60
2022/08/20 03:19:54;;;;;;;7.80;5.40;;;;;;;22.39;65.20;100061.53;90092;1271;94160;-60
2022/08/20 03:22:02;;;;;;;10.70;5.70;;;;;;;22.39;65.34;100063.80;90094;1271;81766;-60
2022/08/20 03:24:11;;;;;;;12.10;5.60;;;;;;;22.39;65.71;100058.41;90113;1271;82251;-60
2022/08/20 03:26:20;;;;;;;9.30;5.90;;;;;;;22.41;65.56;100051.48;90146;1272;99656;-60
2022/08/20 03:28:29;;;;;;;8.90;5.90;;;;;;;22.45;65.68;100050.98;90109;1272;87723;-60
2022/08/20 03:30:38;;;;;;;9.00;5.80;;;;;;;22.47;65.63;100049.92;90104;1270;94299;-60
2022/08/20 03:32:47;;;;;;;13.60;7.70;;;;;;;22.51;65.51;100047.50;90079;1271;80864;-60
2022/08/20 03:34:56;;;;;;;10.20;6.70;;;;;;;22.51;65.56;100047.50;90104;1271;80342;-60
2022/08/20 03:37:05;;;;;;;10.50;6.10;;;;;;;22.51;65.63;100044.02;90119;1272;99980;-60
2022/08/20 03:39:14;;;;;;;9.50;6.30;;;;;;;22.50;65.52;100037.59;90107;1272;88282;-60
2022/08/20 03:41:23;;;;;;;8.70;5.90;;;;;;;22.51;65.52;100038.59;90107;1271;94740;-60
2022/08/20 03:43:34;;;;;;;7.40;5.80;;;;;;;22.54;65.63;100044.08;90090;1271;81005;-59
2022/08/20 03:45:45;;;;;;;6.40;5.70;;;;;;;22.57;65.41;100048.93;90125;1271;81403;-59
2022/08/20 03:47:56;;;;;;;9.60;5.80;;;;;;;22.58;65.55;100047.89;89790;1271;402749;-59
2022/08/20 03:50:07;;;;;;;10.20;6.40;;;;;;;22.62;65.53;100048.16;90109;1271;88718;-59
2022/08/20 03:52:16;;;;;;;8.80;5.90;;;;;;;22.65;65.62;100044.34;90100;1271;95249;-60
2022/08/20 03:54:26;;;;;;;9.80;5.90;;;;;;;22.67;65.55;100041.52;90088;1272;79828;-60
2022/08/20 03:56:35;;;;;;;10.50;6.00;;;;;;;22.68;65.59;100039.44;90112;1272;82543;-60
2022/08/20 03:58:45;;;;;;;13.30;6.90;;;;;;;22.70;65.57;100040.08;90129;1271;99804;-60
2022/08/20 04:00:55;;;;;;;8.90;6.30;;;;;;;22.74;65.46;100042.38;90117;1272;88937;-60
2022/08/20 04:03:04;;;;;;;9.00;5.80;;;;;;;22.76;65.38;100047.78;90092;1272;94647;-60
2022/08/20 04:05:13;;;;;;;10.90;5.90;;;;;;;22.77;65.59;100059.90;90068;1271;80885;-60
2022/08/20 04:07:26;;;;;;;7.70;5.80;;;;;;;22.80;65.46;100069.59;90039;1273;82180;-60
2022/08/20 04:09:35;;;;;;;7.20;5.50;;;;;;;22.81;65.41;100077.73;90013;1272;98698;-60
2022/08/20 04:11:44;;;;;;;7.90;5.10;;;;;;;22.83;65.48;100073.11;90099;1272;87993;-60
2022/08/20 04:13:52;;;;;;;6.20;5.60;;;;;;;22.84;65.72;100075.64;90098;1271;94058;-60
2022/08/20 04:16:07;;;;;;;9.40;5.50;;;;;;;22.87;65.85;100082.92;90095;1271;80711;-60
2022/08/20 04:18:19;;;;;;;8.80;5.80;;;;;;;22.92;65.83;100078.02;90123;1272;81356;-60
2022/08/20 04:20:29;;;;;;;10.60;6.20;;;;;;;23.02;65.81;100075.89;90107;1271;99089;-60
2022/08/20 04:22:37;;;;;;;9.60;6.20;;;;;;;23.09;65.88;100067.56;90114;1271;88190;-60
2022/08/20 04:24:47;;;;;;;8.70;5.70;;;;;;;23.16;65.78;100063.95;90099;1271;94105;-60
2022/08/20 04:26:57;;;;;;;7.90;6.10;;;;;;;23.27;65.63;100067.29;90109;1272;80154;-59
2022/08/20 04:29:06;;;;;;;11.90;6.20;;;;;;;23.37;65.52;100065.67;90100;1272;81279;-60
2022/08/20 04:31:16;;;;;;;9.40;6.70;;;;;;;23.44;65.62;100074.42;90121;1271;99651;-60
2022/08/20 04:33:26;;;;;;;10.00;6.40;;;;;;;23.52;65.58;100075.94;90097;1272;86403;-60
2022/08/20 04:35:35;;;;;;;7.20;6.00;;;;;;;23.56;65.47;100081.27;90083;1272;94289;-60
2022/08/20 04:37:44;;;;;;;6.60;5.90;;;;;;;23.54;65.50;100085.79;90085;1271;79170;-60
2022/08/20 04:42:19;;;;;;;14.30;6.80;;;;;;;23.56;65.67;100085.80;90109;1272;98586;-60
2022/08/20 04:44:28;;;;;;;6.30;5.70;;;;;;;23.61;65.37;100087.80;90111;1272;88482;-60
2022/08/20 04:46:37;;;;;;;7.60;5.50;;;;;;;23.81;65.43;100086.52;90085;1272;93883;-60
2022/08/20 04:48:46;;;;;;;7.80;5.60;;;;;;;24.09;65.16;100091.45;90090;1271;80290;-60
2022/08/20 04:50:56;;;;;;;9.70;6.50;;;;;;;24.13;64.83;100083.48;90115;1271;83049;-60
2022/08/20 04:53:06;;;;;;;10.00;6.20;;;;;;;24.08;64.51;100083.99;90086;1271;98920;-60
2022/08/20 04:55:16;;;;;;;9.80;6.40;;;;;;;24.00;64.44;100078.17;90130;1271;88457;-59
2022/08/20 04:57:25;;;;;;;9.90;6.00;;;;;;;23.92;64.32;100080.42;90093;1272;93431;-59
2022/08/20 04:59:34;;;;;;;9.10;7.00;;;;;;;23.86;64.33;100084.77;90092;1272;79457;-60
2022/08/20 05:01:42;;;;;;;7.30;6.60;;;;;;;23.79;64.47;100087.06;90094;1270;83033;-59
2022/08/20 05:03:53;;;;;;;9.30;6.00;;;;;;;23.72;64.67;100092.02;90073;1272;98608;-59
2022/08/20 05:06:02;;;;;;;11.50;6.70;;;;;;;23.70;64.80;100091.69;90123;1272;88409;-59
2022/08/20 05:08:11;;;;;;;10.10;6.50;;;;;;;23.62;64.84;100090.73;90104;1271;94447;-59
2022/08/20 05:10:23;;;;;;;11.70;6.90;;;;;;;23.59;64.74;100087.50;90079;1271;80272;-59
2022/08/20 05:12:32;;;;;;;8.80;5.70;;;;;;;23.60;64.74;100083.41;90135;1272;81536;-59
2022/08/20 05:14:41;;;;;;;9.40;6.10;;;;;;;23.59;64.83;100082.58;90101;1272;98682;-59
2022/08/20 05:16:56;;;;;;;10.00;6.40;;;;;;;23.61;64.77;100083.23;90118;1271;87139;-59
2022/08/20 05:19:05;;;;;;;10.50;6.70;;;;;;;23.67;64.81;100090.82;90092;1271;93828;-59
2022/08/20 05:21:14;;;;;;;8.40;6.30;;;;;;;23.74;64.78;100095.36;90101;1270;80277;-60
2022/08/20 05:23:23;;;;;;;8.20;6.60;;;;;;;23.75;64.84;100098.85;90103;1272;83054;-59
2022/08/20 05:25:32;;;;;;;11.90;7.00;;;;;;;23.76;64.90;100097.23;90120;1272;99132;-60
2022/08/20 05:27:41;;;;;;;8.90;6.70;;;;;;;23.80;64.80;100097.16;90078;1271;88643;-60
2022/08/20 05:29:52;;;;;;;10.10;7.00;;;;;;;23.84;64.68;100101.88;90090;1272;94718;-60
2022/08/20 05:32:00;;;;;;;10.50;7.50;;;;;;;23.85;64.68;100093.66;90082;1272;79184;-60
2022/08/20 05:34:11;;;;;;;8.00;6.20;;;;;;;23.83;64.63;100094.55;90101;1272;83115;-60
2022/08/20 05:36:20;;;;;;;11.20;6.30;;;;;;;23.89;64.66;100091.05;90085;1271;97215;-60
2022/08/20 05:38:31;;;;;;;8.10;6.20;;;;;;;23.92;64.60;100086.89;90109;1273;88919;-60
2022/08/20 05:40:40;;;;;;;8.70;7.20;;;;;;;24.01;64.54;100085.34;90103;1271;93870;-60
2022/08/20 05:42:49;;;;;;;10.90;6.60;;;;;;;24.13;64.26;100080.05;90095;1271;80507;-60
2022/08/20 05:44:58;;;;;;;9.80;6.60;;;;;;;24.19;63.99;100080.08;90132;1272;81932;-60
2022/08/20 05:47:07;;;;;;;11.20;6.60;;;;;;;24.25;63.85;100074.67;90122;1271;102433;-60
2022/08/20 05:49:19;;;;;;;9.00;6.90;;;;;;;24.21;63.69;100074.98;90089;1272;89036;-60
2022/08/20 05:51:28;;;;;;;10.10;7.30;;;;;;;24.42;63.75;100072.11;90100;1272;94393;-60
2022/08/20 05:53:36;;;;;;;10.60;6.80;;;;;;;25.51;63.09;100061.36;90107;1272;79890;-60
2022/08/20 05:55:45;;;;;;;8.00;6.60;;;;;;;26.08;61.71;100065.52;90105;1271;81949;-60
2022/08/20 05:57:58;;;;;;;11.70;6.10;;;;;;;25.88;60.98;100061.17;90108;1271;98414;-60
2022/08/20 06:00:13;;;;;;;9.90;6.40;;;;;;;25.61;61.01;100063.02;90114;1271;88258;-60
2022/08/20 06:04:48;;;;;;;8.50;7.00;;;;;;;25.08;61.21;100074.73;90085;1272;80258;-60
2022/08/20 06:07:01;;;;;;;7.80;6.50;;;;;;;24.97;61.19;100079.45;90125;1272;82682;-60
2022/08/20 06:09:10;;;;;;;14.60;7.00;;;;;;;24.92;61.37;100080.81;90134;1271;99679;-60
2022/08/20 06:11:19;;;;;;;12.40;6.30;;;;;;;24.88;61.50;100080.47;90124;1272;88453;-60
2022/08/20 06:13:28;;;;;;;9.20;6.80;;;;;;;24.83;61.63;100080.58;90134;1272;91988;-60
2022/08/20 06:15:37;;;;;;;12.40;7.50;;;;;;;24.92;61.69;100084.04;90104;1272;79608;-60
2022/08/20 06:17:46;;;;;;;8.10;6.50;;;;;;;25.01;61.61;100083.83;90134;1272;82069;-60
2022/08/20 06:19:55;;;;;;;8.00;6.80;;;;;;;25.10;61.62;100083.61;90121;1270;98242;-60
2022/08/20 06:22:05;;;;;;;8.90;6.50;;;;;;;25.23;61.56;100085.58;90125;1270;87305;-60
2022/08/20 06:24:13;;;;;;;9.10;6.40;;;;;;;25.57;61.49;100084.21;90100;1271;94260;-60
2022/08/20 06:26:22;;;;;;;11.30;6.70;;;;;;;26.15;60.57;100088.54;90122;1271;80536;-60
2022/08/20 06:28:31;;;;;;;9.50;7.00;;;;;;;26.92;60.15;100083.80;90131;1271;81418;-60
2022/08/20 06:30:40;;;;;;;9.50;6.60;;;;;;;27.90;59.05;100089.61;90127;1271;98346;-60
2022/08/20 06:32:50;;;;;;;8.90;6.40;;;;;;;28.58;57.94;100094.08;90131;1272;88146;-60
2022/08/20 06:35:00;;;;;;;11.90;6.80;;;;;;;28.61;56.91;100096.40;90130;1271;95028;-60
2022/08/20 06:37:20;;;;;;;10.80;6.60;;;;;;;28.37;56.64;100100.09;90112;1270;79919;-60
2022/08/20 06:39:30;;;;;;;9.00;6.70;;;;;;;28.04;56.42;100099.83;90139;1271;81989;-60
2022/08/20 06:41:39;;;;;;;9.70;6.60;;;;;;;27.80;56.68;100097.21;90143;1271;99139;-60
2022/08/20 06:43:47;;;;;;;9.80;6.80;;;;;;;27.57;56.57;100101.52;90136;1271;86843;-60
2022/08/20 06:45:56;;;;;;;12.50;7.50;;;;;;;27.36;56.33;100101.30;90089;1270;93779;-60
2022/08/20 06:48:09;;;;;;;9.70;7.20;;;;;;;27.12;56.40;100103.80;90108;1271;78971;-60
2022/08/20 06:50:27;;;;;;;11.00;7.50;;;;;;;26.93;56.47;100104.53;90134;1271;82301;-60
2022/08/20 06:52:38;;;;;;;9.00;6.30;;;;;;;26.75;56.57;100107.15;90147;1272;99240;-61
2022/08/20 06:54:47;;;;;;;8.40;6.90;;;;;;;26.57;57.01;100110.77;90127;1272;88004;-59
2022/08/20 06:56:55;;;;;;;10.90;7.20;;;;;;;26.46;56.99;100109.30;90015;1273;94385;-59
2022/08/20 06:59:04;;;;;;;9.70;7.60;;;;;;;26.31;57.26;100114.01;90085;1272;80063;-59
2022/08/20 07:01:14;;;;;;;8.30;7.10;;;;;;;26.25;57.54;100113.27;90119;1271;80813;-59
2022/08/20 07:03:24;;;;;;;9.60;7.10;;;;;;;26.24;57.44;100115.77;90129;1270;99538;-60
2022/08/20 07:05:35;;;;;;;8.90;7.00;;;;;;;26.18;57.73;100117.98;90093;1271;87592;-60
2022/08/20 07:07:49;;;;;;;8.00;7.10;;;;;;;26.13;58.08;100121.58;90091;1271;94521;-59
2022/08/20 07:10:05;;;;;;;11.10;7.60;;;;;;;26.11;58.25;100121.58;90064;1271;79240;-59
2022/08/20 07:12:14;;;;;;;11.00;7.40;;;;;;;26.16;58.20;100113.90;90127;1272;81645;-60
2022/08/20 07:14:23;;;;;;;9.10;6.90;;;;;;;26.18;58.10;100113.14;90109;1271;98762;-59
2022/08/20 07:16:32;;;;;;;12.20;7.40;;;;;;;26.22;58.41;100112.15;90131;1270;88903;-59
2022/08/20 07:18:40;;;;;;;10.20;8.10;;;;;;;26.27;58.61;100110.09;90098;1270;95417;-59
2022/08/20 07:20:49;;;;;;;10.10;7.60;;;;;;;26.30;58.54;100110.65;90095;1271;79806;-59
2022/08/20 07:22:59;;;;;;;9.70;6.80;;;;;;;26.29;58.47;100115.20;90117;1271;81658;-59
2022/08/20 07:25:13;;;;;;;9.40;7.40;;;;;;;26.47;58.69;100117.37;90113;1271;99687;-61
2022/08/20 07:27:25;;;;;;;12.60;6.80;;;;;;;26.75;58.59;100116.94;90136;1271;89582;-60
2022/08/20 07:34:22;;;;;;;9.90;7.50;;;;;;;27.66;57.93;100113.60;90122;1272;80720;-60
2022/08/20 07:36:30;;;;;;;9.10;6.90;;;;;;;27.90;57.53;100115.20;90019;1273;98363;-60
2022/08/20 07:38:40;;;;;;;11.20;6.90;;;;;;;28.79;57.35;100114.08;90104;1270;89042;-60
2022/08/20 07:40:49;;;;;;;14.30;7.10;;;;;;;30.05;56.17;100101.52;90104;1271;94075;-60
2022/08/20 07:42:59;;;;;;;12.00;7.20;;;;;;;31.15;54.60;100099.30;90096;1272;79305;-60
2022/08/20 07:45:11;;;;;;;10.70;6.60;;;;;;;31.73;52.44;100097.39;90112;1271;81935;-60
2022/08/20 07:47:22;;;;;;;10.10;7.10;;;;;;;32.27;50.97;100101.51;90104;1271;98117;-60
2022/08/20 07:49:31;;;;;;;8.80;7.00;;;;;;;32.42;49.42;100100.64;90104;1272;88054;-60
2022/08/20 07:51:40;;;;;;;12.60;7.60;;;;;;;31.87;48.38;100093.17;90094;1271;93889;-60
2022/08/20 07:53:50;;;;;;;9.60;6.60;;;;;;;31.29;48.77;100094.57;90063;1270;80157;-60
2022/08/20 07:55:59;;;;;;;9.30;7.30;;;;;;;31.02;49.22;100095.30;90112;1271;81453;-61
2022/08/20 07:58:14;;;;;;;9.50;7.20;;;;;;;30.66;49.10;100092.40;90125;1271;99270;-60
2022/08/20 08:00:26;;;;;;;9.10;6.10;;;;;;;30.39;49.58;100090.77;90118;1271;87883;-60
2022/08/20 08:02:36;;;;;;;12.90;7.50;;;;;;;30.18;50.28;100087.36;90086;1271;94517;-60
2022/08/20 08:04:45;;;;;;;10.40;5.90;;;;;;;30.43;51.06;100085.27;90083;1271;80525;-60
2022/08/20 08:06:58;;;;;;;8.40;6.70;;;;;;;31.59;50.65;100079.46;90126;1271;79955;-60
2022/08/20 08:09:13;;;;;;;8.30;6.60;;;;;;;32.71;49.82;100077.05;90106;1271;98700;-59
2022/08/20 08:11:22;;;;;;;9.00;6.20;;;;;;;33.70;47.85;100068.44;90117;1271;88241;-59
2022/08/20 08:13:34;;;;;;;10.00;5.90;;;;;;;34.36;46.62;100067.01;90083;1270;93400;-60
2022/08/20 08:15:44;;;;;;;;;;;;;;;34.51;44.43;100064.54;90099;1270;79399;-59
2022/08/20 08:17:56;;;;;;;8.00;6.00;;;;;;;34.92;44.11;100068.95;90024;1273;81897;-59
2022/08/20 08:20:07;;;;;;;11.30;5.70;;;;;;;35.38;42.76;100066.19;90101;1271;99533;-59
2022/08/20 08:22:18;;;;;;;8.60;5.80;;;;;;;34.99;42.45;100073.40;90131;1271;86665;-60
2022/08/20 08:24:27;;;;;;;13.30;6.20;;;;;;;34.48;42.33;100069.53;90071;1271;95042;-60
2022/08/20 08:26:36;;;;;;;8.30;5.30;;;;;;;34.50;42.33;100071.48;90103;1272;79890;-60
2022/08/20 08:28:45;;;;;;;9.90;5.50;;;;;;;34.71;42.90;100070.13;90120;1270;81510;-60
2022/08/20 08:30:54;;;;;;;7.20;5.60;;;;;;;35.14;42.26;100073.17;90105;1272;97112;-60
2022/08/20 08:35:31;;;;;;;9.30;5.40;;;;;;;34.33;41.59;100075.81;90089;1271;94332;-60
2022/08/20 08:37:40;;;;;;;7.80;5.70;;;;;;;34.01;41.78;100072.76;90102;1272;79822;-61
2022/08/20 08:39:48;;;;;;;6.80;5.70;;;;;;;33.81;41.49;100068.04;90129;1271;82264;-60
2022/08/20 08:41:59;;;;;;;9.20;5.40;;;;;;;34.37;41.68;100065.27;90106;1271;98333;-59
2022/08/20 08:44:20;;;;;;;8.10;5.60;;;;;;;34.81;41.04;100060.30;90112;1270;88294;-60
2022/08/20 08:46:32;;;;;;;9.40;5.60;;;;;;;34.96;40.04;100064.33;90111;1271;94154;-59
2022/08/20 08:48:44;;;;;;;8.80;5.20;;;;;;;34.47;39.91;100064.85;90058;1271;80454;-60
2022/08/20 08:50:57;;;;;;;9.20;5.80;;;;;;;34.32;40.00;100069.31;90109;1272;81465;-60
2022/08/20 08:53:08;;;;;;;9.30;5.30;;;;;;;34.30;40.80;100075.31;90115;1272;99258;-60
2022/08/20 08:55:22;;;;;;;9.40;5.90;;;;;;;34.56;41.50;100082.12;90097;1271;88104;-60
2022/08/20 08:57:32;;;;;;;7.90;5.00;;;;;;;35.15;40.91;100083.81;90093;1272;93057;-60
2022/08/20 08:59:41;;;;;;;6.80;4.70;;;;;;;35.64;39.65;100081.23;90079;1271;79443;-60
2022/08/20 09:01:52;;;;;;;9.80;5.20;;;;;;;35.80;39.67;100085.56;90114;1272;83503;-60
2022/08/20 09:04:04;;;;;;;7.70;5.30;;;;;;;36.25;39.42;100081.31;90113;1270;99969;-60
2022/08/20 09:06:19;;;;;;;10.50;5.00;;;;;;;36.64;39.02;100077.60;90103;1272;89125;-60
2022/08/20 09:08:33;;;;;;;11.60;5.60;;;;;;;36.74;37.82;100085.92;90084;1271;94604;-60
2022/08/20 09:10:43;;;;;;;8.40;5.60;;;;;;;36.12;37.68;100085.20;90078;1271;78887;-60
2022/08/20 09:12:52;;;;;;;7.60;5.40;;;;;;;35.61;37.52;100092.48;90119;1271;83303;-60
2022/08/20 09:15:00;;;;;;;7.30;5.70;;;;;;;35.45;37.96;100096.31;90137;1271;97166;-60
2022/08/20 09:17:09;;;;;;;7.50;5.20;;;;;;;35.36;38.33;100096.31;90099;1271;86901;-60
2022/08/20 09:19:18;;;;;;;11.60;6.20;;;;;;;35.50;38.67;100092.74;90093;1272;93078;-60
2022/08/20 09:21:27;;;;;;;9.10;5.40;;;;;;;35.44;37.93;100092.67;90078;1270;80534;-60
2022/08/20 09:23:37;;;;;;;11.80;6.00;;;;;;;35.56;38.40;100090.04;90129;1272;82218;-60
2022/08/20 09:25:45;;;;;;;9.20;6.00;;;;;;;35.72;38.66;100088.59;90115;1271;98625;-60
2022/08/20 09:27:54;;;;;;;7.90;5.60;;;;;;;35.82;38.75;100089.15;90124;1271;88395;-60
2022/08/20 09:30:03;;;;;;;10.20;5.40;;;;;;;35.83;38.44;100087.56;90095;1271;96041;-60
2022/08/20 09:32:16;;;;;;;9.10;5.50;;;;;;;35.52;38.07;100085.27;90080;1270;80158;-60
2022/08/20 09:34:25;;;;;;;16.30;6.90;;;;;;;35.12;38.29;100083.47;90100;1270;82759;-60
2022/08/20 09:36:34;;;;;;;7.60;5.80;;;;;;;35.00;38.58;100083.69;90097;1270;99600;-60
2022/08/20 09:38:43;;;;;;;7.10;5.20;;;;;;;34.86;38.95;100083.70;90123;1270;87847;-60
2022/08/20 09:40:51;;;;;;;7.90;6.00;;;;;;;34.70;39.27;100080.13;90114;1271;94148;-60
2022/08/20 09:43:02;;;;;;;8.50;5.70;;;;;;;34.63;39.07;100081.27;90115;1270;79517;-60
2022/08/20 09:45:13;;;;;;;7.80;5.30;;;;;;;34.28;38.81;100081.50;90088;1271;82055;-60
2022/08/20 09:47:23;;;;;;;9.60;5.50;;;;;;;33.97;39.39;100080.77;90111;1271;100054;-60
2022/08/20 09:49:32;;;;;;;10.20;5.50;;;;;;;33.87;39.89;100075.96;90132;1270;88809;-60
2022/08/20 09:51:41;;;;;;;10.60;6.50;;;;;;;33.83;40.16;100076.40;90126;1271;94669;-60
2022/08/20 09:53:50;;;;;;;10.20;5.90;;;;;;;33.84;40.34;100077.16;90114;1271;80372;-61
2022/08/20 09:55:59;;;;;;;8.60;6.30;;;;;;;33.62;40.16;100080.77;90152;1270;81700;-61
2022/08/20 09:58:17;;;;;;;9.60;5.60;;;;;;;33.43;40.56;100076.33;90111;1270;98602;-61
2022/08/20 10:00:26;;;;;;;8.40;6.30;;;;;;;33.41;40.70;100072.66;90128;1270;88706;-61
2022/08/20 10:02:35;;;;;;;11.70;6.60;;;;;;;33.38;40.63;100074.20;90100;1270;95857;-60
2022/08/20 10:04:43;;;;;;;7.90;6.40;;;;;;;33.09;40.74;100068.14;90101;1272;79797;-60
2022/08/20 10:06:52;;;;;;;11.00;6.10;;;;;;;33.15;41.33;100065.16;90139;1271;82386;-60
2022/08/20 10:09:03;;;;;;;11.20;6.00;;;;;;;33.28;41.88;100061.91;90141;1270;98874;-60
2022/08/20 10:11:12;;;;;;;7.20;5.20;;;;;;;33.37;41.65;100058.29;90143;1271;87956;-61
2022/08/20 10:13:20;;;;;;;7.80;5.40;;;;;;;33.40;41.80;100058.06;90118;1270;94493;-61
2022/08/20 10:15:29;;;;;;;7.50;5.60;;;;;;;33.29;41.68;100056.25;90133;1270;79555;-61